createdAt,value
2019-04-27T00:00:20.742Z,10.57
2019-04-27T00:01:20.693Z,10.54
2019-04-27T00:02:24.835Z,10.53
2019-04-27T00:03:20.617Z,10.49
2019-04-27T00:04:20.541Z,10.49
2019-04-27T00:05:20.484Z,10.59
2019-04-27T00:06:20.434Z,10.48
2019-04-27T00:07:21.178Z,10.48
2019-04-27T00:08:20.364Z,10.41
2019-04-27T00:09:20.272Z,10.41
2019-04-27T00:10:20.377Z,10.40
2019-04-27T00:11:20.173Z,10.40
2019-04-27T00:12:22.629Z,10.31
2019-04-27T00:13:20.067Z,10.37
2019-04-27T00:14:20.040Z,10.33
2019-04-27T00:15:19.964Z,10.20
2019-04-27T00:16:19.909Z,10.28
2019-04-27T00:17:40.495Z,10.28
2019-04-27T00:18:19.811Z,10.19
2019-04-27T00:19:19.779Z,10.31
2019-04-27T00:20:21.644Z,10.28
2019-04-27T00:21:19.647Z,10.10
2019-04-27T00:22:19.597Z,10.22
2019-04-27T00:23:19.546Z,10.19
2019-04-27T00:24:19.517Z,10.10
2019-04-27T00:25:19.437Z,10.12
2019-04-27T00:26:19.387Z,10.10
2019-04-27T00:27:19.340Z,10.10
2019-04-27T00:28:19.280Z,10.16
2019-04-27T00:29:19.257Z,10.13
2019-04-27T00:30:19.178Z,10.22
2019-04-27T00:31:19.124Z,10.15
2019-04-27T00:32:19.075Z,10.18
2019-04-27T00:33:19.025Z,10.18
2019-04-27T00:34:18.989Z,10.09
2019-04-27T00:35:18.917Z,10.20
2019-04-27T00:36:18.862Z,10.09
2019-04-27T00:37:18.811Z,10.10
2019-04-27T00:38:18.764Z,10.16
2019-04-27T00:39:18.737Z,10.06
2019-04-27T00:40:18.663Z,10.15
2019-04-27T00:41:19.214Z,10.08
2019-04-27T00:42:18.562Z,10.02
2019-04-27T00:43:18.505Z,9.97
2019-04-27T00:44:18.481Z,10.00
2019-04-27T00:45:18.393Z,9.97
2019-04-27T00:46:18.347Z,9.91
2019-04-27T00:47:18.289Z,9.91
2019-04-27T00:48:18.234Z,10.01
2019-04-27T00:49:20.250Z,10.01
2019-04-27T00:50:18.136Z,9.93
2019-04-27T00:51:18.081Z,9.93
2019-04-27T00:52:18.029Z,10.00
2019-04-27T00:53:17.978Z,9.95
2019-04-27T00:54:17.948Z,9.90
2019-04-27T00:55:17.892Z,9.88
2019-04-27T00:56:17.816Z,9.94
2019-04-27T00:57:17.769Z,9.86
2019-04-27T00:58:17.717Z,9.93
2019-04-27T00:59:17.682Z,9.86
2019-04-27T01:00:17.611Z,9.82
2019-04-27T01:01:17.559Z,9.80
2019-04-27T01:02:17.510Z,9.75
2019-04-27T01:03:17.454Z,9.79
2019-04-27T01:04:17.429Z,9.76
2019-04-27T01:05:17.346Z,9.73
2019-04-27T01:06:17.301Z,9.77
2019-04-27T01:07:17.241Z,9.73
2019-04-27T01:08:17.192Z,9.75
2019-04-27T01:09:17.161Z,9.73
2019-04-27T01:10:17.086Z,9.69
2019-04-27T01:11:17.034Z,9.72
2019-04-27T01:12:16.984Z,9.72
2019-04-27T01:13:16.935Z,9.61
2019-04-27T01:14:16.903Z,9.61
2019-04-27T01:15:16.831Z,9.58
2019-04-27T01:16:20.111Z,9.65
2019-04-27T01:17:16.718Z,9.65
2019-04-27T01:18:16.667Z,9.58
2019-04-27T01:19:16.631Z,9.54
2019-04-27T01:20:16.565Z,9.65
2019-04-27T01:21:16.511Z,9.62
2019-04-27T01:22:16.459Z,9.58
2019-04-27T01:23:16.402Z,9.58
2019-04-27T01:24:16.377Z,9.58
2019-04-27T01:25:16.306Z,9.52
2019-04-27T01:26:16.249Z,9.55
2019-04-27T01:27:16.198Z,9.54
2019-04-27T01:28:16.138Z,9.54
2019-04-27T01:29:16.125Z,9.54
2019-04-27T01:30:16.035Z,9.58
2019-04-27T01:31:15.987Z,9.57
2019-04-27T01:32:15.933Z,9.62
2019-04-27T01:33:15.878Z,9.51
2019-04-27T01:34:15.825Z,9.58
2019-04-27T01:35:15.802Z,9.49
2019-04-27T01:36:15.719Z,9.54
2019-04-27T01:37:15.669Z,9.57
2019-04-27T01:38:15.613Z,9.59
2019-04-27T01:39:15.570Z,9.59
2019-04-27T01:40:15.533Z,9.51
2019-04-27T01:41:15.454Z,9.61
2019-04-27T01:42:15.404Z,9.59
2019-04-27T01:43:15.355Z,9.65
2019-04-27T01:44:15.296Z,9.62
2019-04-27T01:45:15.269Z,9.67
2019-04-27T01:46:15.194Z,9.62
2019-04-27T01:47:15.144Z,9.70
2019-04-27T01:48:22.919Z,9.72
2019-04-27T01:49:15.036Z,9.70
2019-04-27T01:50:15.008Z,9.65
2019-04-27T01:51:14.937Z,9.80
2019-04-27T01:52:14.875Z,9.76
2019-04-27T01:53:14.822Z,9.73
2019-04-27T01:54:14.772Z,9.77
2019-04-27T01:55:14.740Z,9.83
2019-04-27T01:56:14.668Z,9.75
2019-04-27T01:57:14.615Z,9.79
2019-04-27T01:58:14.557Z,9.83
2019-04-27T01:59:14.514Z,9.93
2019-04-27T02:00:14.479Z,9.83
2019-04-27T02:01:14.404Z,9.88
2019-04-27T02:02:14.355Z,9.77
2019-04-27T02:03:14.301Z,9.86
2019-04-27T02:04:14.246Z,9.85
2019-04-27T02:05:14.218Z,9.88
2019-04-27T02:06:14.139Z,9.90
2019-04-27T02:07:14.087Z,9.94
2019-04-27T02:08:14.037Z,9.85
2019-04-27T02:09:13.985Z,9.83
2019-04-27T02:10:13.952Z,9.86
2019-04-27T02:11:13.875Z,9.86
2019-04-27T02:12:13.832Z,9.85
2019-04-27T02:13:13.775Z,9.86
2019-04-27T02:14:13.723Z,9.86
2019-04-27T02:15:13.694Z,9.95
2019-04-27T02:16:13.610Z,9.91
2019-04-27T02:17:13.575Z,9.94
2019-04-27T02:18:13.512Z,9.90
2019-04-27T02:19:13.464Z,9.97
2019-04-27T02:20:13.425Z,9.94
2019-04-27T02:21:13.361Z,9.93
2019-04-27T02:22:13.297Z,10.01
2019-04-27T02:23:13.249Z,10.00
2019-04-27T02:24:13.196Z,9.94
2019-04-27T02:25:13.167Z,9.98
2019-04-27T02:26:13.091Z,10.02
2019-04-27T02:27:13.041Z,10.02
2019-04-27T02:28:12.988Z,10.04
2019-04-27T02:29:12.929Z,9.98
2019-04-27T02:30:12.913Z,10.00
2019-04-27T02:31:12.835Z,10.02
2019-04-27T02:32:12.780Z,9.98
2019-04-27T02:33:12.957Z,10.01
2019-04-27T02:34:12.677Z,10.01
2019-04-27T02:35:12.646Z,9.97
2019-04-27T02:36:15.190Z,9.97
2019-04-27T02:37:12.517Z,9.97
2019-04-27T02:38:12.475Z,10.06
2019-04-27T02:39:12.412Z,9.95
2019-04-27T02:40:12.387Z,10.01
2019-04-27T02:41:12.330Z,10.00
2019-04-27T02:42:12.255Z,10.01
2019-04-27T02:43:12.204Z,10.01
2019-04-27T02:44:12.148Z,10.00
2019-04-27T02:45:12.122Z,9.98
2019-04-27T02:46:12.052Z,9.91
2019-04-27T02:47:11.991Z,9.91
2019-04-27T02:48:11.938Z,9.94
2019-04-27T02:49:11.890Z,9.83
2019-04-27T02:50:11.863Z,9.88
2019-04-27T02:51:11.784Z,9.97
2019-04-27T02:52:11.731Z,9.90
2019-04-27T02:53:11.680Z,9.85
2019-04-27T02:54:12.656Z,9.80
2019-04-27T02:55:11.575Z,9.85
2019-04-27T02:56:11.547Z,9.83
2019-04-27T02:57:11.470Z,9.77
2019-04-27T02:58:12.969Z,9.77
2019-04-27T02:59:11.968Z,9.76
2019-04-27T03:00:11.315Z,9.80
2019-04-27T03:01:11.304Z,9.80
2019-04-27T03:02:11.208Z,9.67
2019-04-27T03:03:11.156Z,9.70
2019-04-27T03:04:11.097Z,9.73
2019-04-27T03:05:13.167Z,9.67
2019-04-27T03:06:11.031Z,9.65
2019-04-27T03:07:11.579Z,9.65
2019-04-27T03:08:10.889Z,9.72
2019-04-27T03:09:10.837Z,9.64
2019-04-27T03:10:10.784Z,9.72
2019-04-27T03:11:10.755Z,9.61
2019-04-27T03:12:10.681Z,9.58
2019-04-27T03:13:11.204Z,9.61
2019-04-27T03:14:28.024Z,9.64
2019-04-27T03:15:10.522Z,9.58
2019-04-27T03:16:11.354Z,9.55
2019-04-27T03:17:10.421Z,9.54
2019-04-27T03:18:10.364Z,9.54
2019-04-27T03:19:17.711Z,9.51
2019-04-27T03:20:10.595Z,9.52
2019-04-27T03:21:13.133Z,9.43
2019-04-27T03:22:10.150Z,9.51
2019-04-27T03:23:10.105Z,9.52
2019-04-27T03:24:10.043Z,9.51
2019-04-27T03:25:11.675Z,9.52
2019-04-27T03:26:10.672Z,9.40
2019-04-27T03:27:09.889Z,9.43
2019-04-27T03:28:10.709Z,9.39
2019-04-27T03:29:10.033Z,9.44
2019-04-27T03:30:12.200Z,9.29
2019-04-27T03:31:13.647Z,9.33
2019-04-27T03:32:12.763Z,9.36
2019-04-27T03:33:11.861Z,9.33
2019-04-27T03:34:15.830Z,9.36
2019-04-27T03:35:12.875Z,9.33
2019-04-27T03:36:12.791Z,9.33
2019-04-27T03:37:10.356Z,9.32
2019-04-27T03:38:10.430Z,9.32
2019-04-27T03:39:10.180Z,9.16
2019-04-27T03:40:10.307Z,9.18
2019-04-27T03:41:09.511Z,9.22
2019-04-27T03:42:10.425Z,9.14
2019-04-27T03:43:09.362Z,9.19
2019-04-27T03:44:09.450Z,9.11
2019-04-27T03:45:10.786Z,9.14
2019-04-27T03:46:10.299Z,9.10
2019-04-27T03:47:12.272Z,9.11
2019-04-27T03:48:10.345Z,9.14
2019-04-27T03:49:09.769Z,9.14
2019-04-27T03:50:10.263Z,9.06
2019-04-27T03:51:09.957Z,9.06
2019-04-27T03:52:09.639Z,9.10
2019-04-27T03:53:10.346Z,9.14
2019-04-27T03:54:10.450Z,9.05
2019-04-27T03:55:10.345Z,9.02
2019-04-27T03:56:10.167Z,8.98
2019-04-27T03:57:09.970Z,8.99
2019-04-27T03:58:10.003Z,9.05
2019-04-27T03:59:10.172Z,8.99
2019-04-27T04:00:10.089Z,8.96
2019-04-27T04:01:10.286Z,9.02
2019-04-27T04:02:10.142Z,8.99
2019-04-27T04:03:10.483Z,8.93
2019-04-27T04:04:10.407Z,8.98
2019-04-27T04:05:09.838Z,8.96
2019-04-27T04:06:10.494Z,9.06
2019-04-27T04:07:09.590Z,9.06
2019-04-27T04:08:10.464Z,8.98
2019-04-27T04:09:09.866Z,8.98
2019-04-27T04:10:07.613Z,9.02
2019-04-27T04:11:10.175Z,9.05
2019-04-27T04:12:09.570Z,8.95
2019-04-27T04:13:07.465Z,8.88
2019-04-27T04:14:07.403Z,8.93
2019-04-27T04:15:09.782Z,8.90
2019-04-27T04:16:08.006Z,8.95
2019-04-27T04:17:12.372Z,8.95
2019-04-27T04:18:09.547Z,8.91
2019-04-27T04:19:09.517Z,8.84
2019-04-27T04:20:09.864Z,8.93
2019-04-27T04:21:09.461Z,8.87
2019-04-27T04:22:07.008Z,8.84
2019-04-27T04:23:06.927Z,8.84
2019-04-27T04:24:09.022Z,8.78
2019-04-27T04:25:06.817Z,8.93
2019-04-27T04:26:06.766Z,8.77
2019-04-27T04:27:06.735Z,8.78
2019-04-27T04:28:08.882Z,8.82
2019-04-27T04:29:06.606Z,8.72
2019-04-27T04:30:06.549Z,8.73
2019-04-27T04:31:10.022Z,8.72
2019-04-27T04:32:06.471Z,8.75
2019-04-27T04:33:06.388Z,8.69
2019-04-27T04:34:06.340Z,8.80
2019-04-27T04:35:06.284Z,8.67
2019-04-27T04:36:06.233Z,8.80
2019-04-27T04:37:06.198Z,8.81
2019-04-27T04:38:06.130Z,8.72
2019-04-27T04:39:06.071Z,8.69
2019-04-27T04:40:06.016Z,8.82
2019-04-27T04:41:05.967Z,8.73
2019-04-27T04:42:05.940Z,8.70
2019-04-27T04:43:05.863Z,8.80
2019-04-27T04:44:05.810Z,8.84
2019-04-27T04:45:05.749Z,8.80
2019-04-27T04:46:09.785Z,8.84
2019-04-27T04:47:05.676Z,8.84
2019-04-27T04:48:05.592Z,8.84
2019-04-27T04:49:05.547Z,8.91
2019-04-27T04:50:11.356Z,8.96
2019-04-27T04:51:05.438Z,8.93
2019-04-27T04:52:05.409Z,8.96
2019-04-27T04:53:05.348Z,9.00
2019-04-27T04:54:05.276Z,8.99
2019-04-27T04:55:05.221Z,9.02
2019-04-27T04:56:05.165Z,8.96
2019-04-27T04:57:05.141Z,9.03
2019-04-27T04:58:05.061Z,8.96
2019-04-27T04:59:05.019Z,9.03
2019-04-27T05:00:04.952Z,8.93
2019-04-27T05:01:04.917Z,8.96
2019-04-27T05:02:04.881Z,9.08
2019-04-27T05:03:04.797Z,9.02
2019-04-27T05:04:04.742Z,9.10
2019-04-27T05:05:04.686Z,9.10
2019-04-27T05:06:04.644Z,9.03
2019-04-27T05:07:04.607Z,8.99
2019-04-27T05:08:04.527Z,9.00
2019-04-27T05:09:04.476Z,9.10
2019-04-27T05:10:04.424Z,9.06
2019-04-27T05:11:04.369Z,9.08
2019-04-27T05:12:04.338Z,9.14
2019-04-27T05:13:04.266Z,8.99
2019-04-27T05:14:04.210Z,9.15
2019-04-27T05:15:04.158Z,9.19
2019-04-27T05:16:04.115Z,9.19
2019-04-27T05:17:04.078Z,9.11
2019-04-27T05:18:04.002Z,9.22
2019-04-27T05:19:03.948Z,9.21
2019-04-27T05:20:03.891Z,9.36
2019-04-27T05:21:03.851Z,9.32
2019-04-27T05:22:03.812Z,9.44
2019-04-27T05:23:03.736Z,9.42
2019-04-27T05:24:03.680Z,9.61
2019-04-27T05:25:03.626Z,9.67
2019-04-27T05:26:03.583Z,9.83
2019-04-27T05:27:03.550Z,9.90
2019-04-27T05:28:03.475Z,10.00
2019-04-27T05:29:03.422Z,10.20
2019-04-27T05:30:03.369Z,10.34
2019-04-27T05:31:03.317Z,10.48
2019-04-27T05:32:03.299Z,10.60
2019-04-27T05:33:03.215Z,10.68
2019-04-27T05:34:03.165Z,10.71
2019-04-27T05:35:03.103Z,10.92
2019-04-27T05:36:03.050Z,11.00
2019-04-27T05:37:03.001Z,11.08
2019-04-27T05:38:07.407Z,11.15
2019-04-27T05:39:02.902Z,11.28
2019-04-27T05:40:02.849Z,11.33
2019-04-27T05:41:02.793Z,11.47
2019-04-27T05:42:02.736Z,11.63
2019-04-27T05:43:02.722Z,11.66
2019-04-27T05:44:03.179Z,11.80
2019-04-27T05:45:02.589Z,11.84
2019-04-27T05:46:02.537Z,12.07
2019-04-27T05:47:05.337Z,12.06
2019-04-27T05:48:02.455Z,12.18
2019-04-27T05:49:06.286Z,12.20
2019-04-27T05:50:02.325Z,12.33
2019-04-27T05:51:02.286Z,12.43
2019-04-27T05:52:02.228Z,12.36
2019-04-27T05:53:02.199Z,12.47
2019-04-27T05:54:02.127Z,12.63
2019-04-27T05:55:02.077Z,12.69
2019-04-27T05:56:02.021Z,12.75
2019-04-27T05:57:01.979Z,12.72
2019-04-27T05:58:01.948Z,12.93
2019-04-27T05:59:01.870Z,12.97
2019-04-27T06:00:02.615Z,13.09
2019-04-27T06:01:01.769Z,13.09
2019-04-27T06:02:01.720Z,13.16
2019-04-27T06:03:01.694Z,13.21
2019-04-27T06:04:01.617Z,13.27
2019-04-27T06:05:01.566Z,13.37
2019-04-27T06:06:01.719Z,13.43
2019-04-27T06:07:01.470Z,13.43
2019-04-27T06:08:01.441Z,13.45
2019-04-27T06:09:01.368Z,13.53
2019-04-27T06:10:01.316Z,13.68
2019-04-27T06:11:01.270Z,13.63
2019-04-27T06:12:01.220Z,13.64
2019-04-27T06:13:01.191Z,13.77
2019-04-27T06:14:01.117Z,13.72
2019-04-27T06:15:01.069Z,13.78
2019-04-27T06:16:01.019Z,13.85
2019-04-27T06:17:00.967Z,13.89
2019-04-27T06:18:00.943Z,13.85
2019-04-27T06:19:00.868Z,13.92
2019-04-27T06:20:00.812Z,13.96
2019-04-27T06:21:00.768Z,14.04
2019-04-27T06:22:01.356Z,14.04
2019-04-27T06:23:00.869Z,14.13
2019-04-27T06:24:00.620Z,14.14
2019-04-27T06:25:00.616Z,14.11
2019-04-27T06:26:01.842Z,14.20
2019-04-27T06:27:00.471Z,14.38
2019-04-27T06:28:00.452Z,14.36
2019-04-27T06:29:00.373Z,14.40
2019-04-27T06:30:00.317Z,14.44
2019-04-27T06:31:00.271Z,14.47
2019-04-27T06:32:00.215Z,14.48
2019-04-27T06:33:00.191Z,14.43
2019-04-27T06:34:00.126Z,14.43
2019-04-27T06:35:00.065Z,14.45
2019-04-27T06:36:01.826Z,14.45
2019-04-27T06:37:00.110Z,14.23
2019-04-27T06:37:59.923Z,14.00
2019-04-27T06:38:59.873Z,14.00
2019-04-27T06:40:00.007Z,13.93
2019-04-27T06:41:01.480Z,14.05
2019-04-27T06:42:01.291Z,14.22
2019-04-27T06:42:59.702Z,14.14
2019-04-27T06:43:59.623Z,14.20
2019-04-27T06:45:00.055Z,14.22
2019-04-27T06:45:59.524Z,14.28
2019-04-27T06:46:59.475Z,14.47
2019-04-27T06:47:59.633Z,14.47
2019-04-27T06:48:59.489Z,14.43
2019-04-27T06:49:59.328Z,14.38
2019-04-27T06:51:03.606Z,14.45
2019-04-27T06:51:59.222Z,14.43
2019-04-27T06:52:59.212Z,14.51
2019-04-27T06:53:59.546Z,14.55
2019-04-27T06:55:00.632Z,14.62
2019-04-27T06:55:59.033Z,14.63
2019-04-27T06:56:59.364Z,14.89
2019-04-27T06:57:59.013Z,14.73
2019-04-27T06:58:59.682Z,14.68
2019-04-27T06:59:59.202Z,14.63
2019-04-27T07:00:59.549Z,14.66
2019-04-27T07:01:59.292Z,14.69
2019-04-27T07:02:59.682Z,14.65
2019-04-27T07:03:59.770Z,14.68
2019-04-27T07:04:59.260Z,14.66
2019-04-27T07:05:58.962Z,14.74
2019-04-27T07:06:59.493Z,14.70
2019-04-27T07:07:59.101Z,14.50
2019-04-27T07:08:59.730Z,14.37
2019-04-27T07:09:59.087Z,14.44
2019-04-27T07:10:58.805Z,14.40
2019-04-27T07:11:59.279Z,14.47
2019-04-27T07:12:59.744Z,14.45
2019-04-27T07:13:59.421Z,14.45
2019-04-27T07:14:59.257Z,14.50
2019-04-27T07:15:59.587Z,14.63
2019-04-27T07:16:59.103Z,14.66
2019-04-27T07:17:58.606Z,14.66
2019-04-27T07:18:59.338Z,14.65
2019-04-27T07:19:59.492Z,14.56
2019-04-27T07:20:58.706Z,14.50
2019-04-27T07:21:59.033Z,14.48
2019-04-27T07:22:59.393Z,14.45
2019-04-27T07:23:59.314Z,14.51
2019-04-27T07:24:59.065Z,14.58
2019-04-27T07:25:57.552Z,14.68
2019-04-27T07:26:59.391Z,14.78
2019-04-27T07:27:59.114Z,14.74
2019-04-27T07:28:57.429Z,14.82
2019-04-27T07:30:00.809Z,14.81
2019-04-27T07:30:58.664Z,14.82
2019-04-27T07:31:57.263Z,14.93
2019-04-27T07:32:58.715Z,14.95
2019-04-27T07:33:57.195Z,15.03
2019-04-27T07:34:58.593Z,14.96
2019-04-27T07:35:58.943Z,15.04
2019-04-27T07:36:57.016Z,14.82
2019-04-27T07:37:58.721Z,14.81
2019-04-27T07:38:56.940Z,14.78
2019-04-27T07:39:56.864Z,14.85
2019-04-27T07:40:58.604Z,14.95
2019-04-27T07:41:58.596Z,14.96
2019-04-27T07:42:56.718Z,14.87
2019-04-27T07:43:58.535Z,14.87
2019-04-27T07:44:56.619Z,14.84
2019-04-27T07:45:56.590Z,14.81
2019-04-27T07:46:56.521Z,14.51
2019-04-27T07:47:56.476Z,14.51
2019-04-27T07:48:56.454Z,14.68
2019-04-27T07:49:56.373Z,14.78
2019-04-27T07:50:56.331Z,14.85
2019-04-27T07:51:56.279Z,15.04
2019-04-27T07:52:56.225Z,15.09
2019-04-27T07:53:56.205Z,15.12
2019-04-27T07:54:56.130Z,15.33
2019-04-27T07:55:56.081Z,15.40
2019-04-27T07:56:56.031Z,15.32
2019-04-27T07:57:55.986Z,15.37
2019-04-27T07:58:55.956Z,15.15
2019-04-27T07:59:55.883Z,15.15
2019-04-27T08:00:55.834Z,15.18
2019-04-27T08:01:55.798Z,15.24
2019-04-27T08:02:55.930Z,15.24
2019-04-27T08:03:55.712Z,15.32
2019-04-27T08:04:55.637Z,15.21
2019-04-27T08:05:55.590Z,15.12
2019-04-27T08:06:55.541Z,15.02
2019-04-27T08:07:55.501Z,15.12
2019-04-27T08:08:55.468Z,15.04
2019-04-27T08:09:55.396Z,15.04
2019-04-27T08:10:55.349Z,14.99
2019-04-27T08:11:55.293Z,14.96
2019-04-27T08:12:55.245Z,15.12
2019-04-27T08:13:55.217Z,15.15
2019-04-27T08:14:55.147Z,15.17
2019-04-27T08:15:55.099Z,15.15
2019-04-27T08:16:55.055Z,15.11
2019-04-27T08:17:55.001Z,15.09
2019-04-27T08:18:54.950Z,15.19
2019-04-27T08:19:54.926Z,15.37
2019-04-27T08:20:56.964Z,15.51
2019-04-27T08:21:54.803Z,15.60
2019-04-27T08:22:54.756Z,15.58
2019-04-27T08:23:54.706Z,15.75
2019-04-27T08:24:54.680Z,15.82
2019-04-27T08:25:54.609Z,15.85
2019-04-27T08:26:54.564Z,15.85
2019-04-27T08:27:54.510Z,15.94
2019-04-27T08:28:54.462Z,15.87
2019-04-27T08:29:54.436Z,15.95
2019-04-27T08:30:54.364Z,15.75
2019-04-27T08:31:54.312Z,15.88
2019-04-27T08:32:54.265Z,15.85
2019-04-27T08:33:54.218Z,15.90
2019-04-27T08:34:54.191Z,15.94
2019-04-27T08:35:54.119Z,15.97
2019-04-27T08:36:54.073Z,16.15
2019-04-27T08:37:54.020Z,16.09
2019-04-27T08:38:53.973Z,16.28
2019-04-27T08:39:53.945Z,16.16
2019-04-27T08:40:53.879Z,16.34
2019-04-27T08:41:53.828Z,16.36
2019-04-27T08:42:55.668Z,16.44
2019-04-27T08:43:53.728Z,16.47
2019-04-27T08:44:53.707Z,16.54
2019-04-27T08:45:53.636Z,16.62
2019-04-27T08:46:53.592Z,16.66
2019-04-27T08:47:53.536Z,16.32
2019-04-27T08:48:53.488Z,16.32
2019-04-27T08:49:53.465Z,16.16
2019-04-27T08:50:53.397Z,16.26
2019-04-27T08:51:59.180Z,16.36
2019-04-27T08:52:53.294Z,16.16
2019-04-27T08:53:53.243Z,16.08
2019-04-27T08:54:53.223Z,15.95
2019-04-27T08:55:53.148Z,15.80
2019-04-27T08:56:53.101Z,15.70
2019-04-27T08:57:53.074Z,15.69
2019-04-27T08:58:53.010Z,15.60
2019-04-27T08:59:52.986Z,15.54
2019-04-27T09:00:52.907Z,15.62
2019-04-27T09:01:52.860Z,15.55
2019-04-27T09:02:52.822Z,15.55
2019-04-27T09:03:52.769Z,15.60
2019-04-27T09:04:52.738Z,15.60
2019-04-27T09:05:52.666Z,15.62
2019-04-27T09:06:52.621Z,15.58
2019-04-27T09:07:52.572Z,15.39
2019-04-27T09:08:52.542Z,15.30
2019-04-27T09:09:52.498Z,15.22
2019-04-27T09:10:52.421Z,15.24
2019-04-27T09:11:52.374Z,15.09
2019-04-27T09:12:53.615Z,15.04
2019-04-27T09:13:52.279Z,14.99
2019-04-27T09:14:52.256Z,14.93
2019-04-27T09:15:52.182Z,14.93
2019-04-27T09:17:00.179Z,14.97
2019-04-27T09:17:52.082Z,15.02
2019-04-27T09:18:52.030Z,14.96
2019-04-27T09:19:52.012Z,14.96
2019-04-27T09:20:51.938Z,15.02
2019-04-27T09:21:51.888Z,14.97
2019-04-27T09:22:51.839Z,14.95
2019-04-27T09:23:51.786Z,14.85
2019-04-27T09:24:51.766Z,14.79
2019-04-27T09:25:51.693Z,14.70
2019-04-27T09:26:51.640Z,14.63
2019-04-27T09:27:51.591Z,14.59
2019-04-27T09:28:51.541Z,14.51
2019-04-27T09:29:51.517Z,14.45
2019-04-27T09:30:51.449Z,14.48
2019-04-27T09:31:51.395Z,14.45
2019-04-27T09:32:51.347Z,14.26
2019-04-27T09:33:51.300Z,14.25
2019-04-27T09:34:51.267Z,14.03
2019-04-27T09:35:51.193Z,13.85
2019-04-27T09:36:51.145Z,13.74
2019-04-27T09:37:51.093Z,13.56
2019-04-27T09:38:51.044Z,13.57
2019-04-27T09:39:51.024Z,13.35
2019-04-27T09:40:50.959Z,13.21
2019-04-27T09:41:50.900Z,13.19
2019-04-27T09:42:50.850Z,13.18
2019-04-27T09:43:50.797Z,13.18
2019-04-27T09:44:50.776Z,13.12
2019-04-27T09:45:50.699Z,13.18
2019-04-27T09:46:50.650Z,13.06
2019-04-27T09:47:50.605Z,13.09
2019-04-27T09:48:50.550Z,13.09
2019-04-27T09:49:50.526Z,13.05
2019-04-27T09:50:50.446Z,13.05
2019-04-27T09:51:50.400Z,13.09
2019-04-27T09:52:50.347Z,12.94
2019-04-27T09:53:50.306Z,12.97
2019-04-27T09:54:50.269Z,13.05
2019-04-27T09:55:50.193Z,13.11
2019-04-27T09:56:50.146Z,13.12
2019-04-27T09:57:50.095Z,13.11
2019-04-27T09:58:50.043Z,13.19
2019-04-27T09:59:50.015Z,13.18
2019-04-27T10:00:49.966Z,13.22
2019-04-27T10:01:49.893Z,13.27
2019-04-27T10:02:49.838Z,13.22
2019-04-27T10:03:49.790Z,13.24
2019-04-27T10:04:49.742Z,13.15
2019-04-27T10:05:49.716Z,13.16
2019-04-27T10:06:49.640Z,13.19
2019-04-27T10:07:49.588Z,13.18
2019-04-27T10:08:49.541Z,13.18
2019-04-27T10:09:49.490Z,13.19
2019-04-27T10:10:49.462Z,13.11
2019-04-27T10:11:49.387Z,13.15
2019-04-27T10:12:49.339Z,13.19
2019-04-27T10:13:49.288Z,13.15
2019-04-27T10:14:49.237Z,13.15
2019-04-27T10:15:49.219Z,13.21
2019-04-27T10:16:49.138Z,13.15
2019-04-27T10:17:49.089Z,13.15
2019-04-27T10:18:49.041Z,13.16
2019-04-27T10:19:48.989Z,13.24
2019-04-27T10:20:59.055Z,13.31
2019-04-27T10:21:48.888Z,13.24
2019-04-27T10:22:48.936Z,13.26
2019-04-27T10:23:48.786Z,13.27
2019-04-27T10:24:48.735Z,13.27
2019-04-27T10:25:48.711Z,13.22
2019-04-27T10:26:48.639Z,13.24
2019-04-27T10:27:48.585Z,13.21
2019-04-27T10:28:48.530Z,13.19
2019-04-27T10:29:48.483Z,13.09
2019-04-27T10:30:48.460Z,13.11
2019-04-27T10:31:48.448Z,13.19
2019-04-27T10:32:48.336Z,13.21
2019-04-27T10:33:48.285Z,13.26
2019-04-27T10:34:48.234Z,13.29
2019-04-27T10:35:48.206Z,13.09
2019-04-27T10:36:48.131Z,13.05
2019-04-27T10:37:48.089Z,13.06
2019-04-27T10:38:48.034Z,12.93
2019-04-27T10:39:47.983Z,12.87
2019-04-27T10:40:47.953Z,12.96
2019-04-27T10:41:47.888Z,13.03
2019-04-27T10:42:47.833Z,13.16
2019-04-27T10:43:47.783Z,13.09
2019-04-27T10:44:47.725Z,13.21
2019-04-27T10:45:47.706Z,13.11
2019-04-27T10:46:47.632Z,13.01
2019-04-27T10:47:49.487Z,12.98
2019-04-27T10:48:47.549Z,13.09
2019-04-27T10:49:48.460Z,12.96
2019-04-27T10:50:47.450Z,12.96
2019-04-27T10:51:47.372Z,12.93
2019-04-27T10:52:53.595Z,12.91
2019-04-27T10:53:47.296Z,12.98
2019-04-27T10:54:47.231Z,12.93
2019-04-27T10:55:47.200Z,12.87
2019-04-27T10:56:47.127Z,12.96
2019-04-27T10:57:47.081Z,12.93
2019-04-27T10:58:47.027Z,12.98
2019-04-27T10:59:46.973Z,13.09
2019-04-27T11:00:46.970Z,13.12
2019-04-27T11:01:46.875Z,12.94
2019-04-27T11:02:46.825Z,13.03
2019-04-27T11:03:46.771Z,13.01
2019-04-27T11:04:46.725Z,13.12
2019-04-27T11:05:46.672Z,13.11
2019-04-27T11:06:46.649Z,13.15
2019-04-27T11:07:46.576Z,13.11
2019-04-27T11:08:48.201Z,13.11
2019-04-27T11:09:46.472Z,13.13
2019-04-27T11:10:46.423Z,13.12
2019-04-27T11:11:46.475Z,13.24
2019-04-27T11:12:46.321Z,13.18
2019-04-27T11:13:46.418Z,13.12
2019-04-27T11:14:46.229Z,13.09
2019-04-27T11:15:46.268Z,12.88
2019-04-27T11:16:46.149Z,12.88
2019-04-27T11:17:47.600Z,12.88
2019-04-27T11:18:47.116Z,12.93
2019-04-27T11:19:46.111Z,12.98
2019-04-27T11:20:46.729Z,12.85
2019-04-27T11:21:45.891Z,12.76
2019-04-27T11:22:46.512Z,12.82
2019-04-27T11:23:46.003Z,12.78
2019-04-27T11:24:45.827Z,12.82
2019-04-27T11:25:46.860Z,12.75
2019-04-27T11:26:46.584Z,12.75
2019-04-27T11:27:45.568Z,12.75
2019-04-27T11:28:46.307Z,12.82
2019-04-27T11:29:46.198Z,12.88
2019-04-27T11:30:45.417Z,12.90
2019-04-27T11:31:46.584Z,12.79
2019-04-27T11:32:45.314Z,12.72
2019-04-27T11:33:46.472Z,12.78
2019-04-27T11:34:45.892Z,12.75
2019-04-27T11:35:46.951Z,12.80
2019-04-27T11:36:45.597Z,12.88
2019-04-27T11:37:45.623Z,12.75
2019-04-27T11:38:46.515Z,12.76
2019-04-27T11:39:46.058Z,12.73
2019-04-27T11:40:46.532Z,12.65
2019-04-27T11:41:44.881Z,12.65
2019-04-27T11:42:44.804Z,12.54
2019-04-27T11:43:46.311Z,12.54
2019-04-27T11:44:44.705Z,12.51
2019-04-27T11:45:45.779Z,12.57
2019-04-27T11:46:45.489Z,12.55
2019-04-27T11:47:44.557Z,12.46
2019-04-27T11:48:44.506Z,12.55
2019-04-27T11:49:45.703Z,12.55
2019-04-27T11:50:45.887Z,12.45
2019-04-27T11:51:44.381Z,12.40
2019-04-27T11:52:45.647Z,12.55
2019-04-27T11:53:44.252Z,12.53
2019-04-27T11:54:45.726Z,12.40
2019-04-27T11:55:44.150Z,12.43
2019-04-27T11:56:44.122Z,12.39
2019-04-27T11:57:44.053Z,12.42
2019-04-27T11:58:43.998Z,12.43
2019-04-27T11:59:43.947Z,12.55
2019-04-27T12:00:43.895Z,12.50
2019-04-27T12:01:43.864Z,12.57
2019-04-27T12:02:45.633Z,12.54
2019-04-27T12:03:43.741Z,12.51
2019-04-27T12:04:43.709Z,12.43
2019-04-27T12:05:43.642Z,12.45
2019-04-27T12:06:43.615Z,12.42
2019-04-27T12:07:43.535Z,12.43
2019-04-27T12:08:43.489Z,12.45
2019-04-27T12:09:43.437Z,12.53
2019-04-27T12:10:43.390Z,12.55
2019-04-27T12:11:43.358Z,12.57
2019-04-27T12:12:43.282Z,12.55
2019-04-27T12:13:43.234Z,12.63
2019-04-27T12:14:43.181Z,12.61
2019-04-27T12:15:43.133Z,12.53
2019-04-27T12:16:43.101Z,12.51
2019-04-27T12:17:43.029Z,12.53
2019-04-27T12:18:42.998Z,12.55
2019-04-27T12:19:42.927Z,12.58
2019-04-27T12:20:42.872Z,12.65
2019-04-27T12:21:42.908Z,12.65
2019-04-27T12:22:42.778Z,12.69
2019-04-27T12:23:42.721Z,12.65
2019-04-27T12:24:42.674Z,12.76
2019-04-27T12:25:42.623Z,12.82
2019-04-27T12:26:42.571Z,12.69
2019-04-27T12:27:42.544Z,12.65
2019-04-27T12:28:42.472Z,12.80
2019-04-27T12:29:42.422Z,12.80
2019-04-27T12:30:42.370Z,12.87
2019-04-27T12:31:44.896Z,12.90
2019-04-27T12:32:42.292Z,12.91
2019-04-27T12:33:42.217Z,12.97
2019-04-27T12:34:42.176Z,13.08
2019-04-27T12:35:42.113Z,12.96
2019-04-27T12:36:42.069Z,12.97
2019-04-27T12:37:42.038Z,12.98
2019-04-27T12:38:41.963Z,13.00
2019-04-27T12:39:41.908Z,12.97
2019-04-27T12:40:41.873Z,12.97
2019-04-27T12:41:41.814Z,12.90
2019-04-27T12:42:41.785Z,12.90
2019-04-27T12:43:41.706Z,12.94
2019-04-27T12:44:42.497Z,12.93
2019-04-27T12:45:43.575Z,12.88
2019-04-27T12:46:41.580Z,12.73
2019-04-27T12:47:41.539Z,12.60
2019-04-27T12:48:41.459Z,12.27
2019-04-27T12:49:41.641Z,11.61
2019-04-27T12:50:41.358Z,11.20
2019-04-27T12:51:41.303Z,10.67
2019-04-27T12:52:41.277Z,10.34
2019-04-27T12:53:50.679Z,10.09
2019-04-27T12:54:41.153Z,9.86
2019-04-27T12:55:41.101Z,9.64
2019-04-27T12:56:41.051Z,9.58
2019-04-27T12:57:41.023Z,9.52
2019-04-27T12:58:40.948Z,9.44
2019-04-27T12:59:40.901Z,9.49
2019-04-27T13:00:40.926Z,9.32